createdAt,value
2019-02-26T00:09:57.405Z,15.15
2019-02-26T00:20:05.559Z,14.90
2019-02-26T00:30:16.775Z,14.20
2019-02-26T00:40:23.310Z,12.70
2019-02-26T00:50:30.394Z,12.47
2019-02-26T01:00:36.771Z,12.55
2019-02-26T01:10:43.749Z,11.50
2019-02-26T01:20:50.671Z,11.25
2019-02-26T01:30:58.395Z,10.35
2019-02-26T01:41:05.189Z,10.53
2019-02-26T01:51:11.155Z,10.08
2019-02-26T02:01:19.250Z,9.15
2019-02-26T02:31:40.158Z,8.68
2019-02-26T02:41:48.775Z,8.48
2019-02-26T02:51:53.233Z,7.67
2019-02-26T03:01:59.190Z,8.13
2019-02-26T03:12:05.544Z,7.55
2019-02-26T03:22:12.904Z,6.87
2019-02-26T03:32:18.846Z,6.50
2019-02-26T03:42:24.977Z,6.42
2019-02-26T03:52:32.114Z,6.47
2019-02-26T04:02:39.906Z,5.80
2019-02-26T04:12:48.946Z,5.40
2019-02-26T04:22:56.673Z,5.90
2019-02-26T04:33:30.419Z,5.03
2019-02-26T04:43:41.161Z,5.30
2019-02-26T04:53:49.165Z,4.67
2019-02-26T05:03:54.628Z,11.15
2019-02-26T05:14:00.532Z,13.70
2019-02-26T05:24:06.771Z,12.85
2019-02-26T05:34:15.061Z,14.13
2019-02-26T05:44:20.430Z,12.63
2019-02-26T05:54:26.201Z,15.40
2019-02-26T06:04:35.208Z,12.55
2019-02-26T06:14:39.697Z,11.30
2019-02-26T06:34:50.586Z,8.98
2019-02-26T06:44:56.330Z,7.70
2019-02-26T06:55:03.554Z,6.90
2019-02-26T07:05:13.689Z,6.55
2019-02-26T07:35:30.667Z,9.88
2019-02-26T07:45:37.045Z,8.50
2019-02-26T07:55:42.808Z,7.42
2019-02-26T08:05:48.750Z,6.97
2019-02-26T08:26:02.302Z,7.00
2019-02-26T08:36:08.382Z,7.97
2019-02-26T08:46:16.577Z,7.70
2019-02-26T08:56:23.902Z,13.50
2019-02-26T09:06:31.533Z,13.40
2019-02-26T09:16:37.369Z,9.83
2019-02-26T09:26:43.356Z,8.43
2019-02-26T09:36:52.765Z,6.83
2019-02-26T09:46:58.302Z,8.13
2019-02-26T09:57:04.365Z,6.95
2019-02-26T10:07:11.733Z,7.25
2019-02-26T10:17:19.586Z,7.45
2019-02-26T10:27:25.549Z,7.78
2019-02-26T10:37:33.654Z,6.92
2019-02-26T10:47:39.030Z,5.92
2019-02-26T10:57:47.753Z,6.12
2019-02-26T11:07:55.311Z,4.95
2019-02-26T11:18:00.391Z,5.35
2019-02-26T11:28:07.532Z,4.80
2019-02-26T11:38:14.932Z,4.75
2019-02-26T11:48:23.360Z,4.62
2019-02-26T11:58:29.031Z,4.65
2019-02-26T12:08:37.055Z,4.37
2019-02-26T12:18:44.389Z,4.72
2019-02-26T12:28:52.266Z,4.75
2019-02-26T12:38:59.960Z,5.60
2019-02-26T12:49:06.726Z,5.00
2019-02-26T12:59:14.198Z,4.97
2019-02-26T13:09:20.067Z,5.40
2019-02-26T13:19:30.736Z,4.87
2019-02-26T13:29:33.498Z,5.10
2019-02-26T13:39:41.557Z,5.17
2019-02-26T13:49:47.106Z,5.10
2019-02-26T13:59:53.321Z,5.05
2019-02-26T14:09:59.165Z,5.20
2019-02-26T14:20:11.115Z,5.67
2019-02-26T14:30:18.998Z,4.78
2019-02-26T14:40:24.928Z,4.95
2019-02-26T14:50:30.758Z,5.67
2019-02-26T15:00:36.973Z,5.40
2019-02-26T15:10:42.998Z,5.95
2019-02-26T15:20:48.984Z,5.60
2019-02-26T15:30:55.166Z,5.22
2019-02-26T15:41:02.122Z,5.33
2019-02-26T15:51:14.432Z,5.85
2019-02-26T16:01:17.165Z,5.53
2019-02-26T16:11:23.171Z,6.62
2019-02-26T16:21:29.032Z,8.40
2019-02-26T16:31:36.028Z,8.48
2019-02-26T16:41:42.009Z,8.10
2019-02-26T16:51:48.182Z,9.08
2019-02-26T17:01:54.995Z,9.70
2019-02-26T17:12:01.582Z,9.00
2019-02-26T17:22:07.587Z,8.38
2019-02-26T17:32:13.514Z,8.88
2019-02-26T17:42:19.445Z,9.18
2019-02-26T17:52:25.291Z,9.28
2019-02-26T18:02:31.279Z,9.98
2019-02-26T18:12:37.218Z,10.20
2019-02-26T18:22:43.076Z,9.58
2019-02-26T18:32:50.547Z,10.43
2019-02-26T18:42:56.667Z,11.00
2019-02-26T18:53:02.626Z,10.18
2019-02-26T19:03:09.432Z,9.08
2019-02-26T19:13:15.663Z,25.95
2019-02-26T19:23:22.033Z,28.62
2019-02-26T20:13:48.866Z,21.35
2019-02-26T20:23:54.734Z,20.12
2019-02-26T20:34:00.681Z,18.35
2019-02-26T20:44:09.766Z,17.15
2019-02-26T20:54:15.464Z,16.30
2019-02-26T21:04:21.303Z,16.12
2019-02-26T21:14:27.136Z,15.13
2019-02-26T21:34:39.670Z,13.95
2019-02-26T21:44:45.526Z,13.75
2019-02-26T21:54:51.429Z,13.22
2019-02-26T22:04:57.371Z,13.30
2019-02-26T22:15:04.259Z,11.90
2019-02-26T22:25:15.972Z,10.72
2019-02-26T22:35:20.012Z,11.15
2019-02-26T22:45:27.960Z,9.20
2019-02-26T22:55:33.548Z,9.33
2019-02-26T23:05:39.581Z,8.88
2019-02-26T23:15:46.076Z,9.85
